createdAt,value
2018-07-13T00:01:14.439Z,5.60
2018-07-13T00:03:43.536Z,4.50
2018-07-13T00:06:10.894Z,4.67
2018-07-13T00:08:38.234Z,5.27
2018-07-13T00:11:05.734Z,4.47
2018-07-13T00:13:38.072Z,5.20
2018-07-13T00:16:05.457Z,4.87
2018-07-13T00:18:32.796Z,5.07
2018-07-13T00:21:00.941Z,4.63
2018-07-13T00:23:29.036Z,4.80
2018-07-13T00:25:56.324Z,4.90
2018-07-13T00:28:23.653Z,4.90
2018-07-13T00:30:50.976Z,4.67
2018-07-13T00:33:18.237Z,4.40
2018-07-13T00:35:45.602Z,4.30
2018-07-13T00:38:12.887Z,4.33
2018-07-13T00:40:41.154Z,4.63
2018-07-13T00:43:08.462Z,5.00
2018-07-13T00:45:35.738Z,5.10
2018-07-13T00:48:03.662Z,5.37
2018-07-13T00:50:31.012Z,5.40
2018-07-13T00:52:58.544Z,5.00
2018-07-13T00:55:25.906Z,4.80
2018-07-13T00:57:53.190Z,4.60
2018-07-13T01:00:25.941Z,5.30
2018-07-13T01:02:54.082Z,5.17
2018-07-13T01:05:21.532Z,4.60
2018-07-13T01:07:48.891Z,4.93
2018-07-13T01:10:16.650Z,5.30
2018-07-13T01:12:43.954Z,4.60
2018-07-13T01:15:11.592Z,5.40
2018-07-13T01:17:38.888Z,5.27
2018-07-13T01:20:06.218Z,5.27
2018-07-13T01:22:33.597Z,5.63
2018-07-13T01:25:01.131Z,5.40
2018-07-13T01:27:28.676Z,5.60
2018-07-13T01:29:56.360Z,5.27
2018-07-13T01:32:24.255Z,5.97
2018-07-13T01:34:51.618Z,5.27
2018-07-13T01:37:19.190Z,5.33
2018-07-13T01:39:46.526Z,5.57
2018-07-13T01:42:13.919Z,5.10
2018-07-13T01:44:41.511Z,5.60
2018-07-13T01:47:08.863Z,5.60
2018-07-13T01:49:36.230Z,6.37
2018-07-13T01:52:03.569Z,5.80
2018-07-13T01:54:31.060Z,5.70
2018-07-13T01:56:58.427Z,5.67
2018-07-13T01:59:26.078Z,5.67
2018-07-13T02:01:53.456Z,6.00
2018-07-13T02:04:23.509Z,5.80
2018-07-13T02:06:50.809Z,5.53
2018-07-13T02:09:18.224Z,5.70
2018-07-13T02:11:45.631Z,6.70
2018-07-13T02:14:13.415Z,6.47
2018-07-13T02:16:41.155Z,5.80
2018-07-13T02:19:08.805Z,5.20
2018-07-13T02:21:36.349Z,6.07
2018-07-13T02:24:03.701Z,5.97
2018-07-13T02:26:31.009Z,6.10
2018-07-13T02:28:58.318Z,5.90
2018-07-13T02:31:26.420Z,5.83
2018-07-13T02:33:54.843Z,5.50
2018-07-13T02:36:22.136Z,4.80
2018-07-13T02:38:49.417Z,5.00
2018-07-13T02:41:16.771Z,5.07
2018-07-13T02:43:44.047Z,5.20
2018-07-13T02:46:11.388Z,5.50
2018-07-13T02:48:40.311Z,5.20
2018-07-13T02:51:09.519Z,5.17
2018-07-13T02:53:36.831Z,5.00
2018-07-13T02:56:04.304Z,5.60
2018-07-13T02:58:31.588Z,5.40
2018-07-13T03:00:58.949Z,5.40
2018-07-13T03:03:30.121Z,4.93
2018-07-13T03:05:58.356Z,5.07
2018-07-13T03:08:25.655Z,4.90
2018-07-13T03:10:53.003Z,5.00
2018-07-13T03:13:20.338Z,5.60
2018-07-13T03:15:47.648Z,5.50
2018-07-13T03:18:15.004Z,5.73
2018-07-13T03:20:42.372Z,5.50
2018-07-13T03:23:09.809Z,5.43
2018-07-13T03:25:37.121Z,5.83
2018-07-13T03:28:04.467Z,5.57
2018-07-13T03:30:31.938Z,5.70
2018-07-13T03:32:59.244Z,5.80
2018-07-13T03:35:26.550Z,6.60
2018-07-13T03:37:53.857Z,5.90
2018-07-13T03:40:22.020Z,5.63
2018-07-13T03:42:49.336Z,5.07
2018-07-13T03:45:16.681Z,5.50
2018-07-13T03:47:44.104Z,4.97
2018-07-13T03:50:11.501Z,5.70
2018-07-13T03:52:38.798Z,5.60
2018-07-13T03:55:06.698Z,4.70
2018-07-13T03:57:34.065Z,5.30
2018-07-13T04:00:01.375Z,5.60
2018-07-13T04:02:28.678Z,5.50
2018-07-13T04:05:00.908Z,5.23
2018-07-13T04:07:28.237Z,5.70
2018-07-13T04:09:55.541Z,5.50
2018-07-13T04:12:27.801Z,5.27
2018-07-13T04:14:55.159Z,5.20
2018-07-13T04:17:22.473Z,5.53
2018-07-13T04:19:49.855Z,5.63
2018-07-13T04:22:17.343Z,6.70
2018-07-13T04:24:44.800Z,5.20
2018-07-13T04:27:13.105Z,5.10
2018-07-13T04:29:40.674Z,4.97
2018-07-13T04:32:08.010Z,5.60
2018-07-13T04:34:35.403Z,5.23
2018-07-13T04:37:02.943Z,5.43
2018-07-13T04:39:30.474Z,6.70
2018-07-13T04:42:00.837Z,6.23
2018-07-13T04:44:28.269Z,6.10
2018-07-13T04:46:55.716Z,5.77
2018-07-13T04:49:30.146Z,5.40
2018-07-13T04:51:57.516Z,5.17
2018-07-13T04:54:25.083Z,5.17
2018-07-13T04:56:54.803Z,5.80
2018-07-13T04:59:22.358Z,5.00
2018-07-13T05:01:50.886Z,5.50
2018-07-13T05:04:18.855Z,4.70
2018-07-13T05:06:46.205Z,5.10
2018-07-13T05:09:13.639Z,4.97
2018-07-13T05:11:41.964Z,4.60
2018-07-13T05:14:09.359Z,4.87
2018-07-13T05:16:36.823Z,5.07
2018-07-13T05:19:04.151Z,5.03
2018-07-13T05:21:31.762Z,4.93
2018-07-13T05:23:59.385Z,5.33
2018-07-13T05:26:27.876Z,4.90
2018-07-13T05:28:55.354Z,5.30
2018-07-13T05:31:22.880Z,5.00
2018-07-13T05:33:51.368Z,4.60
2018-07-13T05:36:18.975Z,4.80
2018-07-13T05:38:46.581Z,4.13
2018-07-13T05:41:14.074Z,4.77
2018-07-13T05:43:41.803Z,4.50
2018-07-13T05:46:10.070Z,5.13
2018-07-13T05:48:37.774Z,5.03
2018-07-13T05:51:08.097Z,4.57
2018-07-13T05:53:35.588Z,5.10
2018-07-13T05:56:02.917Z,7.00
2018-07-13T05:58:30.361Z,6.70
2018-07-13T06:00:57.809Z,5.77
2018-07-13T06:03:26.052Z,6.60
2018-07-13T06:05:53.582Z,5.53
2018-07-13T06:08:23.885Z,23.53
2018-07-13T06:10:51.389Z,6.90
2018-07-13T06:13:18.881Z,7.40
2018-07-13T06:15:46.212Z,6.03
2018-07-13T06:18:19.378Z,6.80
2018-07-13T06:20:46.798Z,8.93
2018-07-13T06:23:14.215Z,8.43
2018-07-13T06:25:43.533Z,6.70
2018-07-13T06:28:11.040Z,8.03
2018-07-13T06:30:38.444Z,8.27
2018-07-13T06:33:06.107Z,8.70
2018-07-13T06:35:33.612Z,10.70
2018-07-13T06:38:01.096Z,8.73
2018-07-13T06:40:28.525Z,8.97
2018-07-13T06:42:55.850Z,8.37
2018-07-13T06:45:23.320Z,9.80
2018-07-13T06:47:51.546Z,8.97
2018-07-13T06:50:19.134Z,8.07
2018-07-13T06:52:47.137Z,10.10
2018-07-13T06:55:14.617Z,10.23
2018-07-13T06:57:47.322Z,9.80
2018-07-13T07:00:20.221Z,9.70
2018-07-13T07:02:49.415Z,8.20
2018-07-13T07:05:38.260Z,8.23
2018-07-13T07:08:05.675Z,9.80
2018-07-13T07:10:33.013Z,10.00
2018-07-13T07:13:06.875Z,8.63
2018-07-13T07:15:35.738Z,7.73
2018-07-13T07:18:04.003Z,8.53
2018-07-13T07:20:31.430Z,7.40
2018-07-13T07:22:58.801Z,7.30
2018-07-13T07:25:26.332Z,7.97
2018-07-13T07:27:53.788Z,7.77
2018-07-13T07:30:21.262Z,6.70
2018-07-13T07:32:48.662Z,7.13
2018-07-13T07:35:16.090Z,7.23
2018-07-13T07:37:43.602Z,6.90
2018-07-13T07:40:11.017Z,6.00
2018-07-13T07:42:38.446Z,6.67
2018-07-13T07:45:06.801Z,6.13
2018-07-13T07:47:34.330Z,5.93
2018-07-13T07:50:02.644Z,5.93
2018-07-13T07:52:30.037Z,5.97
2018-07-13T07:54:57.401Z,5.83
2018-07-13T07:57:24.824Z,6.23
2018-07-13T07:59:52.265Z,5.93
2018-07-13T08:02:21.632Z,6.10
2018-07-13T08:04:49.266Z,5.07
2018-07-13T08:07:17.168Z,5.53
2018-07-13T08:09:43.922Z,5.50
2018-07-13T08:12:11.331Z,6.13
2018-07-13T08:14:40.551Z,5.70
2018-07-13T08:17:07.880Z,5.13
2018-07-13T08:19:35.350Z,5.07
2018-07-13T08:22:05.529Z,5.20
2018-07-13T08:24:32.950Z,4.90
2018-07-13T08:27:06.387Z,5.23
2018-07-13T08:29:35.487Z,4.97
2018-07-13T08:32:02.942Z,5.00
2018-07-13T08:34:31.112Z,5.00
2018-07-13T08:36:59.330Z,4.87
2018-07-13T08:39:26.652Z,4.70
2018-07-13T08:41:54.348Z,4.50
2018-07-13T08:44:25.637Z,4.73
2018-07-13T08:46:53.087Z,5.13
2018-07-13T08:49:20.429Z,5.10
2018-07-13T08:51:47.860Z,5.20
2018-07-13T08:54:15.527Z,5.20
2018-07-13T08:56:43.031Z,4.53
2018-07-13T08:59:10.535Z,4.37
2018-07-13T09:01:37.890Z,4.73
2018-07-13T09:04:05.308Z,5.33
2018-07-13T09:06:32.756Z,5.20
2018-07-13T09:09:00.369Z,4.93
2018-07-13T09:11:29.628Z,5.20
2018-07-13T09:13:57.020Z,5.80
2018-07-13T09:16:24.442Z,5.93
2018-07-13T09:18:51.866Z,5.50
2018-07-13T09:21:19.315Z,5.80
2018-07-13T09:23:46.807Z,5.43
2018-07-13T09:26:14.168Z,5.40
2018-07-13T09:28:41.574Z,5.73
2018-07-13T09:31:09.073Z,5.37
2018-07-13T09:33:36.471Z,5.77
2018-07-13T09:36:03.922Z,5.90
2018-07-13T09:38:31.289Z,5.00
2018-07-13T09:40:58.654Z,5.70
2018-07-13T09:43:28.841Z,5.40
2018-07-13T09:45:57.157Z,5.63
2018-07-13T09:48:24.631Z,5.90
2018-07-13T09:50:52.041Z,6.90
2018-07-13T09:53:19.686Z,6.30
2018-07-13T09:55:47.096Z,6.20
2018-07-13T09:58:14.425Z,5.93
2018-07-13T10:00:47.213Z,6.07
2018-07-13T10:03:14.778Z,5.10
2018-07-13T10:05:42.255Z,5.40
2018-07-13T10:08:09.798Z,5.50
2018-07-13T10:10:37.218Z,5.33
2018-07-13T10:13:04.607Z,5.17
2018-07-13T10:15:34.987Z,4.90
2018-07-13T10:18:02.475Z,5.20
2018-07-13T10:20:29.992Z,4.70
2018-07-13T10:22:57.365Z,4.77
2018-07-13T10:25:27.289Z,4.40
2018-07-13T10:27:54.781Z,4.60
2018-07-13T10:30:22.263Z,5.10
2018-07-13T10:32:49.941Z,4.77
2018-07-13T10:35:17.500Z,4.77
2018-07-13T10:37:45.051Z,4.97
2018-07-13T10:40:13.645Z,5.03
2018-07-13T10:42:41.028Z,6.10
2018-07-13T10:45:09.414Z,4.87
2018-07-13T10:47:37.085Z,4.73
2018-07-13T10:50:04.473Z,4.90
2018-07-13T10:52:31.817Z,4.30
2018-07-13T10:54:59.211Z,5.17
2018-07-13T10:57:26.668Z,3.90
2018-07-13T10:59:54.153Z,4.50
2018-07-13T11:02:23.410Z,4.90
2018-07-13T11:04:50.870Z,4.73
2018-07-13T11:07:18.242Z,4.37
2018-07-13T11:09:46.019Z,5.07
2018-07-13T11:12:13.405Z,4.70
2018-07-13T11:14:40.850Z,4.93
2018-07-13T11:17:08.324Z,4.87
2018-07-13T11:19:37.595Z,3.80
2018-07-13T11:22:12.682Z,4.57
2018-07-13T11:24:40.264Z,4.70
2018-07-13T11:27:07.679Z,4.33
2018-07-13T11:29:36.975Z,4.13
2018-07-13T11:32:04.476Z,4.27
2018-07-13T11:34:31.833Z,4.80
2018-07-13T11:36:59.370Z,4.97
2018-07-13T11:39:27.818Z,4.43
2018-07-13T11:41:57.176Z,4.70
2018-07-13T11:44:26.475Z,4.53
2018-07-13T11:46:53.952Z,4.67
2018-07-13T11:49:26.163Z,5.10
2018-07-13T11:51:53.501Z,5.00
2018-07-13T11:54:20.827Z,5.20
2018-07-13T11:56:49.119Z,4.90
2018-07-13T11:59:16.501Z,5.20
2018-07-13T12:01:44.036Z,4.60
2018-07-13T12:04:11.410Z,5.40
2018-07-13T12:06:41.577Z,5.20
2018-07-13T12:09:09.382Z,4.93
2018-07-13T12:11:36.724Z,4.40
2018-07-13T12:14:10.314Z,4.70
2018-07-13T12:16:38.544Z,5.20
2018-07-13T12:19:07.850Z,4.83
2018-07-13T12:21:35.288Z,4.50
2018-07-13T12:24:03.057Z,4.67
2018-07-13T12:26:33.246Z,4.80
2018-07-13T12:29:01.596Z,4.10
2018-07-13T12:31:30.901Z,4.73
2018-07-13T12:33:58.404Z,4.70
2018-07-13T12:36:26.771Z,4.60
2018-07-13T12:38:56.100Z,4.50
2018-07-13T12:41:24.472Z,4.50
2018-07-13T12:43:52.263Z,4.03
2018-07-13T12:46:22.348Z,4.10
2018-07-13T12:48:52.658Z,4.73
2018-07-13T12:51:20.080Z,4.80
2018-07-13T12:53:47.479Z,4.37
2018-07-13T12:56:14.966Z,3.93
2018-07-13T12:58:42.347Z,4.30
2018-07-13T13:01:09.738Z,4.17
2018-07-13T13:03:37.213Z,3.73
2018-07-13T13:06:08.541Z,4.80
2018-07-13T13:08:35.963Z,4.80
2018-07-13T13:11:03.944Z,4.73
2018-07-13T13:13:31.748Z,3.97
2018-07-13T13:16:10.289Z,4.17
2018-07-13T13:18:37.868Z,4.10
2018-07-13T13:21:08.468Z,4.00
2018-07-13T13:23:35.822Z,4.13
2018-07-13T13:26:03.243Z,4.70
2018-07-13T13:28:31.085Z,4.20
2018-07-13T13:30:59.349Z,4.00
2018-07-13T13:33:27.008Z,3.93
2018-07-13T13:35:54.673Z,3.87
2018-07-13T13:38:24.165Z,4.30
2018-07-13T13:40:51.645Z,3.83
2018-07-13T13:43:22.079Z,4.40
2018-07-13T13:45:49.638Z,4.30
2018-07-13T13:48:17.726Z,4.50
2018-07-13T13:50:45.186Z,4.23
2018-07-13T13:53:12.597Z,4.63
2018-07-13T13:55:41.898Z,4.73
2018-07-13T13:58:10.271Z,3.97
2018-07-13T14:00:37.738Z,4.53
2018-07-13T14:03:07.213Z,3.90
2018-07-13T14:05:36.386Z,3.87
2018-07-13T14:08:03.775Z,3.73
2018-07-13T14:10:31.109Z,4.10
2018-07-13T14:13:00.315Z,4.73
2018-07-13T14:15:34.559Z,3.87
2018-07-13T14:18:01.915Z,4.27
2018-07-13T14:20:35.172Z,4.60
2018-07-13T14:23:02.561Z,4.60
2018-07-13T14:25:30.813Z,4.40
2018-07-13T14:27:59.404Z,4.17
2018-07-13T14:30:27.641Z,4.03
2018-07-13T14:32:55.008Z,4.60
2018-07-13T14:35:22.403Z,4.20
2018-07-13T14:37:49.959Z,3.80
2018-07-13T14:40:17.639Z,4.73
2018-07-13T14:42:45.064Z,4.07
2018-07-13T14:45:12.464Z,4.37
2018-07-13T14:47:41.410Z,4.57
2018-07-13T14:50:10.840Z,4.10
2018-07-13T14:52:38.210Z,4.30
2018-07-13T14:55:06.553Z,4.17
2018-07-13T14:57:33.932Z,4.03
2018-07-13T15:00:01.394Z,4.17
2018-07-13T15:02:28.790Z,4.40
2018-07-13T15:04:56.245Z,4.40
2018-07-13T15:07:23.672Z,4.30
2018-07-13T15:09:51.049Z,4.17
2018-07-13T15:12:18.534Z,3.93
2018-07-13T15:14:45.917Z,4.80
2018-07-13T15:17:13.418Z,4.20
2018-07-13T15:19:43.768Z,4.40
2018-07-13T15:22:14.933Z,4.27
2018-07-13T15:24:42.274Z,3.77
2018-07-13T15:27:10.574Z,3.90
2018-07-13T15:29:38.114Z,3.80
2018-07-13T15:32:05.563Z,4.20
2018-07-13T15:34:32.893Z,4.17
2018-07-13T15:37:00.247Z,4.90
2018-07-13T15:39:29.081Z,4.63
2018-07-13T15:41:56.497Z,4.00
2018-07-13T15:44:23.870Z,4.33
2018-07-13T15:46:51.288Z,4.50
2018-07-13T15:49:19.537Z,4.23
2018-07-13T15:51:46.954Z,4.10
2018-07-13T15:54:14.592Z,4.17
2018-07-13T15:56:42.793Z,4.20
2018-07-13T15:59:10.190Z,3.93
2018-07-13T16:01:37.538Z,4.07
2018-07-13T16:04:04.883Z,4.70
2018-07-13T16:06:33.324Z,3.40
2018-07-13T16:09:00.701Z,4.50
2018-07-13T16:11:28.155Z,4.10
2018-07-13T16:13:55.612Z,3.93
2018-07-13T16:16:22.913Z,4.47
2018-07-13T16:18:50.279Z,4.00
2018-07-13T16:21:17.763Z,4.00
2018-07-13T16:23:45.151Z,4.13
2018-07-13T16:26:21.052Z,3.60
2018-07-13T16:28:48.501Z,4.13
2018-07-13T16:31:15.968Z,3.70
2018-07-13T16:33:43.373Z,4.37
2018-07-13T16:36:10.741Z,4.33
2018-07-13T16:38:38.031Z,4.57
2018-07-13T16:41:05.396Z,4.80
2018-07-13T16:43:32.803Z,4.70
2018-07-13T16:46:00.254Z,4.17
2018-07-13T16:48:27.570Z,5.37
2018-07-13T16:50:54.876Z,3.90
2018-07-13T16:53:22.165Z,4.53
2018-07-13T16:55:49.543Z,4.67
2018-07-13T16:58:17.622Z,4.90
2018-07-13T17:00:46.809Z,4.60
2018-07-13T17:03:15.247Z,4.67
2018-07-13T17:05:42.529Z,4.97
2018-07-13T17:08:09.861Z,4.77
2018-07-13T17:10:37.146Z,5.00
2018-07-13T17:13:04.615Z,4.90
2018-07-13T17:15:31.942Z,5.20
2018-07-13T17:17:59.274Z,4.43
2018-07-13T17:20:26.893Z,4.50
2018-07-13T17:22:54.997Z,5.03
2018-07-13T17:25:22.288Z,4.87
2018-07-13T17:27:49.630Z,5.37
2018-07-13T17:30:16.981Z,4.87
2018-07-13T17:32:44.312Z,4.70
2018-07-13T17:35:11.822Z,5.50
2018-07-13T17:37:39.315Z,5.00
2018-07-13T17:40:06.667Z,4.60
2018-07-13T17:42:34.021Z,5.07
2018-07-13T17:45:01.413Z,4.00
2018-07-13T17:47:28.815Z,4.93
2018-07-13T17:49:56.293Z,4.67
2018-07-13T17:52:23.687Z,4.60
2018-07-13T17:54:51.013Z,4.90
2018-07-13T17:57:18.455Z,4.63
2018-07-13T17:59:47.713Z,4.40
2018-07-13T18:02:15.149Z,4.50
2018-07-13T18:04:42.551Z,4.80
2018-07-13T18:07:09.878Z,4.90
2018-07-13T18:09:37.311Z,4.30
2018-07-13T18:12:04.700Z,4.80
2018-07-13T18:14:32.057Z,4.80
2018-07-13T18:16:59.405Z,4.60
2018-07-13T18:19:28.575Z,4.17
2018-07-13T18:21:55.980Z,4.97
2018-07-13T18:24:23.303Z,4.73
2018-07-13T18:26:50.613Z,4.40
2018-07-13T18:29:17.990Z,4.83
2018-07-13T18:31:45.359Z,3.97
2018-07-13T18:34:13.174Z,4.87
2018-07-13T18:36:40.579Z,4.60
2018-07-13T18:39:08.058Z,4.80
2018-07-13T18:41:35.615Z,4.50
2018-07-13T18:44:03.413Z,4.30
2018-07-13T18:46:30.774Z,4.53
2018-07-13T18:48:58.200Z,4.80
2018-07-13T18:51:26.873Z,4.30
2018-07-13T18:53:54.299Z,4.40
2018-07-13T18:56:21.572Z,4.50
2018-07-13T18:58:49.184Z,4.20
2018-07-13T19:01:16.512Z,4.80
2018-07-13T19:03:43.858Z,4.50
2018-07-13T19:06:11.210Z,4.77
2018-07-13T19:08:38.564Z,4.93
2018-07-13T19:11:05.893Z,4.37
2018-07-13T19:13:33.357Z,4.60
2018-07-13T19:16:00.646Z,5.07
2018-07-13T19:18:27.988Z,4.60
2018-07-13T19:20:55.429Z,3.90
2018-07-13T19:23:22.755Z,4.50
2018-07-13T19:25:50.096Z,4.30
2018-07-13T19:28:17.517Z,4.37
2018-07-13T19:30:45.004Z,4.57
2018-07-13T19:33:12.406Z,5.47
2018-07-13T19:35:40.112Z,5.40
2018-07-13T19:38:07.672Z,5.50
2018-07-13T19:40:35.075Z,5.00
2018-07-13T19:43:02.501Z,4.83
2018-07-13T19:45:30.027Z,4.30
2018-07-13T19:47:57.482Z,4.20
2018-07-13T19:50:24.959Z,5.00
2018-07-13T19:52:52.350Z,4.27
2018-07-13T19:55:19.747Z,4.97
2018-07-13T19:57:47.199Z,4.23
2018-07-13T20:00:14.620Z,4.13
2018-07-13T20:02:43.876Z,4.20
2018-07-13T20:05:11.314Z,4.60
2018-07-13T20:07:38.742Z,4.80
2018-07-13T20:10:06.207Z,4.37
2018-07-13T20:12:33.805Z,5.07
2018-07-13T20:15:01.146Z,4.73
2018-07-13T20:17:28.433Z,4.30
2018-07-13T20:19:55.757Z,4.53
2018-07-13T20:22:23.188Z,4.73
2018-07-13T20:24:50.582Z,4.20
2018-07-13T20:27:18.049Z,4.83
2018-07-13T20:29:45.459Z,4.63
2018-07-13T20:32:12.842Z,3.87
2018-07-13T20:34:40.248Z,4.87
2018-07-13T20:37:07.654Z,4.57
2018-07-13T20:39:35.072Z,5.03
2018-07-13T20:42:02.477Z,4.90
2018-07-13T20:44:29.830Z,4.67
2018-07-13T20:46:57.210Z,5.00
2018-07-13T20:49:24.544Z,4.00
2018-07-13T20:51:51.865Z,4.37
2018-07-13T20:54:19.327Z,4.50
2018-07-13T20:56:46.598Z,4.63
2018-07-13T20:59:13.959Z,4.60
2018-07-13T21:01:41.517Z,4.77
2018-07-13T21:04:08.846Z,4.47
2018-07-13T21:06:36.255Z,4.67
2018-07-13T21:09:04.548Z,4.80
2018-07-13T21:11:32.130Z,4.87
2018-07-13T21:13:59.537Z,4.50
2018-07-13T21:16:26.874Z,5.00
2018-07-13T21:18:54.275Z,4.57
2018-07-13T21:21:21.714Z,4.70
2018-07-13T21:23:49.123Z,4.77
2018-07-13T21:26:16.497Z,4.80
2018-07-13T21:28:43.883Z,5.17
2018-07-13T21:31:11.451Z,4.80
2018-07-13T21:33:38.956Z,4.80
2018-07-13T21:36:06.269Z,5.30
2018-07-13T21:38:33.574Z,5.80
2018-07-13T21:41:00.890Z,5.27
2018-07-13T21:43:28.203Z,5.53
2018-07-13T21:45:55.554Z,6.30
2018-07-13T21:48:22.893Z,5.10
2018-07-13T21:50:50.245Z,5.00
2018-07-13T21:53:17.675Z,5.40
2018-07-13T21:55:45.122Z,5.00
2018-07-13T21:58:12.463Z,5.13
2018-07-13T22:00:39.783Z,6.40
2018-07-13T22:03:07.104Z,6.70
2018-07-13T22:05:34.433Z,5.37
2018-07-13T22:08:01.776Z,5.50
2018-07-13T22:10:29.163Z,5.50
2018-07-13T22:12:56.500Z,5.37
2018-07-13T22:15:23.869Z,5.57
2018-07-13T22:17:51.246Z,5.63
2018-07-13T22:20:18.750Z,6.10
2018-07-13T22:22:46.067Z,5.20
2018-07-13T22:25:13.392Z,5.00
2018-07-13T22:27:40.744Z,5.70
2018-07-13T22:30:08.119Z,5.47
2018-07-13T22:32:35.557Z,5.40
2018-07-13T22:35:02.896Z,5.90
2018-07-13T22:37:30.215Z,5.10
2018-07-13T22:39:57.532Z,5.30
2018-07-13T22:42:24.872Z,4.53
2018-07-13T22:44:52.165Z,5.90
2018-07-13T22:47:19.468Z,5.50
2018-07-13T22:49:46.802Z,5.50
2018-07-13T22:52:14.108Z,5.50
2018-07-13T22:54:41.377Z,5.87
2018-07-13T22:57:08.735Z,5.50
2018-07-13T22:59:36.057Z,5.17
2018-07-13T23:02:03.447Z,6.17
2018-07-13T23:04:30.713Z,5.23
2018-07-13T23:06:58.006Z,5.13
2018-07-13T23:09:25.396Z,5.63
2018-07-13T23:11:52.725Z,5.90
2018-07-13T23:14:20.105Z,4.93
2018-07-13T23:16:47.397Z,6.03
2018-07-13T23:19:14.958Z,4.87
2018-07-13T23:21:42.289Z,5.53
2018-07-13T23:24:09.744Z,5.10
2018-07-13T23:26:37.189Z,5.70
2018-07-13T23:29:04.612Z,5.20
2018-07-13T23:31:32.070Z,4.77
2018-07-13T23:33:59.610Z,5.50
2018-07-13T23:36:29.650Z,5.00
2018-07-13T23:38:56.983Z,5.80
2018-07-13T23:41:24.378Z,6.07
2018-07-13T23:43:51.694Z,5.10
2018-07-13T23:46:19.073Z,5.67
2018-07-13T23:48:46.402Z,5.50
2018-07-13T23:51:13.715Z,5.90
2018-07-13T23:53:41.117Z,6.53
2018-07-13T23:56:08.484Z,5.60
2018-07-13T23:58:35.844Z,6.20
